createdAt,value
2023-03-12T00:00:49.333Z,4.00
2023-03-12T00:03:17.981Z,3.90
2023-03-12T00:05:46.701Z,3.90
2023-03-12T00:08:16.713Z,3.90
2023-03-12T00:10:46.065Z,3.90
2023-03-12T00:13:14.036Z,3.80
2023-03-12T00:15:42.044Z,3.90
2023-03-12T00:18:10.123Z,4.00
2023-03-12T00:20:38.116Z,4.00
2023-03-12T00:23:06.105Z,4.00
2023-03-12T00:25:37.021Z,3.90
2023-03-12T00:28:06.729Z,4.10
2023-03-12T00:30:34.743Z,4.00
2023-03-12T00:33:02.777Z,4.10
2023-03-12T00:35:30.830Z,4.10
2023-03-12T00:37:58.842Z,4.00
2023-03-12T00:40:27.112Z,4.10
2023-03-12T00:42:55.077Z,4.20
2023-03-12T00:45:24.407Z,4.10
2023-03-12T00:47:52.418Z,4.10
2023-03-12T00:50:20.853Z,4.10
2023-03-12T00:52:48.943Z,4.20
2023-03-12T00:55:17.216Z,4.20
2023-03-12T00:57:45.223Z,4.30
2023-03-12T01:00:14.339Z,4.30
2023-03-12T01:02:43.725Z,4.30
2023-03-12T01:05:13.942Z,4.20
2023-03-12T01:07:42.260Z,4.20
2023-03-12T01:10:12.809Z,4.20
2023-03-12T01:12:40.854Z,4.20
2023-03-12T01:15:10.010Z,4.20
2023-03-12T01:17:38.206Z,4.20
2023-03-12T01:20:09.420Z,4.20
2023-03-12T01:22:38.274Z,4.10
2023-03-12T01:25:06.863Z,4.20
2023-03-12T01:27:34.914Z,4.20
2023-03-12T01:30:03.056Z,4.10
2023-03-12T01:32:31.123Z,4.20
2023-03-12T01:35:02.085Z,4.10
2023-03-12T01:37:32.750Z,4.10
2023-03-12T01:40:00.927Z,4.10
2023-03-12T01:42:28.929Z,4.10
2023-03-12T01:44:58.933Z,4.10
2023-03-12T01:47:27.426Z,4.10
2023-03-12T01:49:57.051Z,4.10
2023-03-12T01:52:28.550Z,4.10
2023-03-12T01:55:02.584Z,4.10
2023-03-12T01:57:35.923Z,4.20
2023-03-12T02:00:11.819Z,4.20
2023-03-12T02:02:41.145Z,4.20
2023-03-12T02:05:16.253Z,4.10
2023-03-12T02:07:44.370Z,4.20
2023-03-12T02:10:13.773Z,4.20
2023-03-12T02:12:42.451Z,4.20
2023-03-12T02:15:23.530Z,4.20
2023-03-12T02:17:51.486Z,4.20
2023-03-12T02:20:25.216Z,4.20
2023-03-12T02:23:01.952Z,4.20
2023-03-12T02:25:37.334Z,4.20
2023-03-12T02:28:08.523Z,4.30
2023-03-12T02:30:37.621Z,4.30
2023-03-12T02:33:08.516Z,4.30
2023-03-12T02:35:37.145Z,4.30
2023-03-12T02:38:25.588Z,4.30
2023-03-12T02:40:56.720Z,4.30
2023-03-12T02:43:24.876Z,4.30
2023-03-12T02:45:53.104Z,4.30
2023-03-12T02:48:21.196Z,4.30
2023-03-12T02:50:49.197Z,4.30
2023-03-12T02:53:17.234Z,4.30
2023-03-12T02:55:45.326Z,4.40
2023-03-12T02:58:14.652Z,4.30
2023-03-12T03:00:42.677Z,4.40
2023-03-12T03:03:10.637Z,4.40
2023-03-12T03:05:39.629Z,4.40
2023-03-12T03:08:08.906Z,4.30
2023-03-12T03:10:36.877Z,4.40
2023-03-12T03:13:04.897Z,4.30
2023-03-12T03:15:34.286Z,4.40
2023-03-12T03:18:03.930Z,4.40
2023-03-12T03:20:32.342Z,4.40
2023-03-12T03:23:00.287Z,4.40
2023-03-12T03:25:28.927Z,4.40
2023-03-12T03:27:56.982Z,4.40
2023-03-12T03:30:25.132Z,4.40
2023-03-12T03:32:54.535Z,4.50
2023-03-12T03:35:24.192Z,4.50
2023-03-12T03:37:52.184Z,4.40
2023-03-12T03:40:20.305Z,4.40
2023-03-12T03:42:48.351Z,4.40
2023-03-12T03:45:16.307Z,4.50
2023-03-12T03:47:44.290Z,4.50
2023-03-12T03:50:15.373Z,4.40
2023-03-12T03:52:43.378Z,4.40
2023-03-12T03:55:11.640Z,4.30
2023-03-12T03:57:39.650Z,4.30
2023-03-12T04:00:13.071Z,4.30
2023-03-12T04:02:41.341Z,4.40
2023-03-12T04:05:10.420Z,4.30
2023-03-12T04:07:39.944Z,4.40
2023-03-12T04:10:08.897Z,4.30
2023-03-12T04:12:43.865Z,4.30
2023-03-12T04:15:12.015Z,4.20
2023-03-12T04:17:40.079Z,4.20
2023-03-12T04:20:09.508Z,4.30
2023-03-12T04:22:38.994Z,4.30
2023-03-12T04:25:07.920Z,4.30
2023-03-12T04:27:36.859Z,4.40
2023-03-12T04:30:05.560Z,4.50
2023-03-12T04:32:33.579Z,4.50
2023-03-12T04:35:01.570Z,4.50
2023-03-12T04:37:29.746Z,4.50
2023-03-12T04:39:59.053Z,4.50
2023-03-12T04:42:27.152Z,4.60
2023-03-12T04:44:55.201Z,4.50
2023-03-12T04:47:23.199Z,4.40
2023-03-12T04:49:51.156Z,4.40
2023-03-12T04:52:19.177Z,4.40
2023-03-12T04:54:48.139Z,4.40
2023-03-12T04:57:17.545Z,4.40
2023-03-12T04:59:45.762Z,4.40
2023-03-12T05:02:13.874Z,4.40
2023-03-12T05:04:41.918Z,4.50
2023-03-12T05:07:09.936Z,4.50
2023-03-12T05:09:37.910Z,4.40
2023-03-12T05:12:06.499Z,4.40
2023-03-12T05:14:35.829Z,4.50
2023-03-12T05:17:05.226Z,4.50
2023-03-12T05:19:33.298Z,4.50
2023-03-12T05:22:01.277Z,4.50
2023-03-12T05:24:29.299Z,4.50
2023-03-12T05:26:57.268Z,4.40
2023-03-12T05:29:25.479Z,4.60
2023-03-12T05:32:01.421Z,4.50
2023-03-12T05:34:30.349Z,4.50
2023-03-12T05:37:00.133Z,4.60
2023-03-12T05:39:28.788Z,4.60
2023-03-12T05:41:57.333Z,4.70
2023-03-12T05:44:26.370Z,4.60
2023-03-12T05:46:57.149Z,4.60
2023-03-12T05:49:27.922Z,4.60
2023-03-12T05:51:55.951Z,4.70
2023-03-12T05:54:24.391Z,4.70
2023-03-12T05:56:52.950Z,4.80
2023-03-12T05:59:20.967Z,4.80
2023-03-12T06:01:49.034Z,4.70
2023-03-12T06:04:17.019Z,4.80
2023-03-12T06:06:46.452Z,4.70
2023-03-12T06:09:14.534Z,4.60
2023-03-12T06:11:42.490Z,4.50
2023-03-12T06:14:10.534Z,4.50
2023-03-12T06:16:38.657Z,4.50
2023-03-12T06:19:07.651Z,4.50
2023-03-12T06:21:38.160Z,4.40
2023-03-12T06:24:08.502Z,4.50
2023-03-12T06:26:36.519Z,4.50
2023-03-12T06:29:04.770Z,4.40
2023-03-12T06:31:32.863Z,4.40
2023-03-12T06:34:00.864Z,4.40
2023-03-12T06:36:28.836Z,4.40
2023-03-12T06:38:57.380Z,4.40
2023-03-12T06:41:27.078Z,4.40
2023-03-12T06:43:55.180Z,4.40
2023-03-12T06:46:25.200Z,4.50
2023-03-12T06:48:53.636Z,4.60
2023-03-12T06:51:21.760Z,4.70
2023-03-12T06:53:49.722Z,4.50
2023-03-12T06:56:17.840Z,4.60
2023-03-12T06:58:48.794Z,4.60
2023-03-12T07:01:16.766Z,4.60
2023-03-12T07:03:45.252Z,4.60
2023-03-12T07:06:17.561Z,4.60
2023-03-12T07:08:46.229Z,4.70
2023-03-12T07:11:14.609Z,4.70
2023-03-12T07:13:43.087Z,4.80
2023-03-12T07:16:12.996Z,5.00
2023-03-12T07:18:41.009Z,5.20
2023-03-12T07:21:09.010Z,5.20
2023-03-12T07:23:36.967Z,5.30
2023-03-12T07:26:06.146Z,5.30
2023-03-12T07:28:34.265Z,5.20
2023-03-12T07:31:02.975Z,5.30
2023-03-12T07:33:32.991Z,5.50
2023-03-12T07:36:15.417Z,5.60
2023-03-12T07:38:43.459Z,5.80
2023-03-12T07:41:11.452Z,5.90
2023-03-12T07:43:39.501Z,5.90
2023-03-12T07:46:07.549Z,6.10
2023-03-12T07:48:36.889Z,6.20
2023-03-12T07:51:05.246Z,6.20
2023-03-12T07:53:33.215Z,6.40
2023-03-12T07:56:01.275Z,6.40
2023-03-12T07:58:29.366Z,6.40
2023-03-12T08:00:57.883Z,6.30
2023-03-12T08:03:26.057Z,6.30
2023-03-12T08:06:00.331Z,6.20
2023-03-12T08:08:29.376Z,6.30
2023-03-12T08:10:57.396Z,6.50
2023-03-12T08:13:25.894Z,6.50
2023-03-12T08:15:54.868Z,6.80
2023-03-12T08:18:42.997Z,6.70
2023-03-12T08:21:16.385Z,6.90
2023-03-12T08:23:44.584Z,7.20
2023-03-12T08:26:12.615Z,7.30
2023-03-12T08:28:40.867Z,7.20
2023-03-12T08:31:09.486Z,7.20
2023-03-12T08:33:41.123Z,7.30
2023-03-12T08:36:09.886Z,7.20
2023-03-12T08:38:39.229Z,7.30
2023-03-12T08:41:10.300Z,7.30
2023-03-12T08:43:38.266Z,7.40
2023-03-12T08:46:06.517Z,7.50
2023-03-12T08:48:34.868Z,7.70
2023-03-12T08:51:05.900Z,7.70
2023-03-12T08:53:35.770Z,7.60
2023-03-12T08:56:06.247Z,7.70
2023-03-12T08:58:34.197Z,7.70
2023-03-12T09:01:02.279Z,7.90
2023-03-12T09:03:30.286Z,7.80
2023-03-12T09:06:06.098Z,7.90
2023-03-12T09:08:52.875Z,7.80
2023-03-12T09:11:22.388Z,7.80
2023-03-12T09:14:16.827Z,7.80
2023-03-12T09:16:38.321Z,7.70
2023-03-12T09:19:06.625Z,7.80
2023-03-12T09:21:34.601Z,7.70
2023-03-12T09:24:02.586Z,7.70
2023-03-12T09:26:47.345Z,7.80
2023-03-12T09:29:15.353Z,8.10
2023-03-12T09:31:46.458Z,8.20
2023-03-12T09:34:14.537Z,8.30
2023-03-12T09:36:42.492Z,8.40
2023-03-12T09:39:10.779Z,8.40
2023-03-12T09:41:42.231Z,8.40
2023-03-12T09:44:18.866Z,8.40
2023-03-12T09:46:51.777Z,8.30
2023-03-12T09:49:24.095Z,8.40
2023-03-12T09:51:56.433Z,8.20
2023-03-12T09:54:29.291Z,8.40
2023-03-12T09:57:10.328Z,8.50
2023-03-12T09:59:39.717Z,8.40
2023-03-12T10:02:37.740Z,8.50
2023-03-12T10:05:12.084Z,8.50
2023-03-12T10:07:46.324Z,8.60
2023-03-12T10:10:36.389Z,8.60
2023-03-12T10:13:18.428Z,8.70
2023-03-12T10:16:03.554Z,8.70
2023-03-12T10:18:43.162Z,8.70
2023-03-12T10:21:21.139Z,8.60
2023-03-12T10:24:25.414Z,8.60
2023-03-12T10:26:55.652Z,8.40
2023-03-12T10:29:27.329Z,8.40
2023-03-12T10:32:01.671Z,8.40
2023-03-12T10:34:37.592Z,8.30
2023-03-12T10:37:15.625Z,8.40
2023-03-12T10:39:43.773Z,8.40
2023-03-12T10:42:16.992Z,8.30
2023-03-12T10:44:46.427Z,8.40
2023-03-12T10:47:36.380Z,8.40
2023-03-12T10:50:19.245Z,8.40
2023-03-12T10:52:49.338Z,8.40
2023-03-12T10:55:29.429Z,8.60
2023-03-12T10:57:58.440Z,8.70
2023-03-12T11:00:28.462Z,8.90
2023-03-12T11:03:03.807Z,9.00
2023-03-12T11:05:34.688Z,9.20
2023-03-12T11:08:04.788Z,9.30
2023-03-12T11:10:44.561Z,9.30
2023-03-12T11:13:31.125Z,9.40
2023-03-12T11:16:01.906Z,9.50
2023-03-12T11:18:34.328Z,9.60
2023-03-12T11:21:18.006Z,9.60
2023-03-12T11:23:48.613Z,9.60
2023-03-12T11:26:32.215Z,9.50
2023-03-12T11:29:04.150Z,9.40
2023-03-12T11:31:35.797Z,9.40
2023-03-12T11:34:08.315Z,9.30
2023-03-12T11:36:46.945Z,9.40
2023-03-12T11:39:27.736Z,9.40
2023-03-12T11:42:19.203Z,9.40
2023-03-12T11:45:17.171Z,9.40
2023-03-12T11:47:55.310Z,9.40
2023-03-12T11:50:34.561Z,9.40
2023-03-12T11:53:18.952Z,9.40
2023-03-12T11:55:58.566Z,9.50
2023-03-12T11:58:36.154Z,9.50
2023-03-12T12:01:11.021Z,9.60
2023-03-12T12:04:05.328Z,9.70
2023-03-12T12:06:48.331Z,9.90
2023-03-12T12:09:37.675Z,10.00
2023-03-12T12:12:30.539Z,10.10
2023-03-12T12:15:15.774Z,10.20
2023-03-12T12:18:01.394Z,10.20
2023-03-12T12:20:55.118Z,10.30
2023-03-12T12:23:37.508Z,10.50
2023-03-12T12:26:11.258Z,10.50
2023-03-12T12:29:03.929Z,10.70
2023-03-12T12:31:40.428Z,11.10
2023-03-12T12:34:27.292Z,11.20
2023-03-12T12:37:03.348Z,11.30
2023-03-12T12:39:36.448Z,11.80
2023-03-12T12:42:10.672Z,11.70
2023-03-12T12:44:43.449Z,12.10
2023-03-12T12:47:18.368Z,12.00
2023-03-12T12:49:50.264Z,11.70
2023-03-12T12:52:21.022Z,12.20
2023-03-12T12:55:01.133Z,11.70
2023-03-12T12:57:36.928Z,11.60
2023-03-12T13:00:22.194Z,11.70
2023-03-12T13:02:51.557Z,11.70
2023-03-12T13:05:23.013Z,11.80
2023-03-12T13:07:50.976Z,12.40
2023-03-12T13:10:58.078Z,12.60
2023-03-12T13:13:30.655Z,12.50
2023-03-12T13:16:30.816Z,12.40
2023-03-12T13:19:00.725Z,12.00
2023-03-12T13:21:39.724Z,11.70
2023-03-12T13:24:23.261Z,11.70
2023-03-12T13:26:58.752Z,11.60
2023-03-12T13:29:39.675Z,11.70
2023-03-12T13:32:30.749Z,11.90
2023-03-12T13:34:59.036Z,12.30
2023-03-12T13:37:46.756Z,12.90
2023-03-12T13:40:40.232Z,13.20
2023-03-12T13:43:15.160Z,13.20
2023-03-12T13:45:57.153Z,12.70
2023-03-12T13:48:26.088Z,12.40
2023-03-12T13:50:56.546Z,12.80
2023-03-12T13:53:27.481Z,12.60
2023-03-12T13:56:03.494Z,12.40
2023-03-12T13:58:39.942Z,12.20
2023-03-12T14:01:15.195Z,12.20
2023-03-12T14:03:48.104Z,12.00
2023-03-12T14:06:20.537Z,11.90
2023-03-12T14:09:15.842Z,11.80
2023-03-12T14:11:54.200Z,11.90
2023-03-12T14:14:54.873Z,12.20
2023-03-12T14:17:27.233Z,12.10
2023-03-12T14:20:01.378Z,12.30
2023-03-12T14:22:33.605Z,12.40
2023-03-12T14:25:06.109Z,13.00
2023-03-12T14:27:35.355Z,13.30
2023-03-12T14:30:13.082Z,13.40
2023-03-12T14:32:44.921Z,12.70
2023-03-12T14:35:20.673Z,12.50
2023-03-12T14:37:55.681Z,12.10
2023-03-12T14:40:26.811Z,12.10
2023-03-12T14:42:55.621Z,12.50
2023-03-12T14:45:24.155Z,12.80
2023-03-12T14:47:56.881Z,13.20
2023-03-12T14:50:27.832Z,13.00
2023-03-12T14:52:56.957Z,13.30
2023-03-12T14:55:26.708Z,13.30
2023-03-12T14:58:05.223Z,13.30
2023-03-12T15:00:33.873Z,13.30
2023-03-12T15:03:06.453Z,13.30
2023-03-12T15:05:35.070Z,13.10
2023-03-12T15:08:04.622Z,12.80
2023-03-12T15:10:34.623Z,12.80
2023-03-12T15:13:04.075Z,12.80
2023-03-12T15:15:37.936Z,12.40
2023-03-12T15:18:09.760Z,12.40
2023-03-12T15:20:38.193Z,12.30
2023-03-12T15:23:07.828Z,12.10
2023-03-12T15:25:36.226Z,12.20
2023-03-12T15:28:25.173Z,12.30
2023-03-12T15:31:11.750Z,12.60
2023-03-12T15:33:42.228Z,12.60
2023-03-12T15:36:31.097Z,12.50
2023-03-12T15:39:03.171Z,12.30
2023-03-12T15:41:44.015Z,12.20
2023-03-12T15:44:20.229Z,12.50
2023-03-12T15:46:49.788Z,12.60
2023-03-12T15:49:25.517Z,13.30
2023-03-12T15:52:03.162Z,13.40
2023-03-12T15:54:32.171Z,13.30
2023-03-12T15:57:21.123Z,13.00
2023-03-12T16:00:08.041Z,12.90
2023-03-12T16:02:37.524Z,12.90
2023-03-12T16:05:09.133Z,12.70
2023-03-12T16:07:37.116Z,12.60
2023-03-12T16:10:05.940Z,12.40
2023-03-12T16:12:34.292Z,12.20
2023-03-12T16:15:02.281Z,12.20
2023-03-12T16:17:30.326Z,12.10
2023-03-12T16:19:58.295Z,11.90
2023-03-12T16:22:27.610Z,11.90
2023-03-12T16:24:55.582Z,11.80
2023-03-12T16:27:32.337Z,11.60
2023-03-12T16:30:00.988Z,11.80
2023-03-12T16:32:30.016Z,11.70
2023-03-12T16:34:58.045Z,11.60
2023-03-12T16:37:27.741Z,11.50
2023-03-12T16:39:55.772Z,11.50
2023-03-12T16:42:23.967Z,11.40
2023-03-12T16:44:52.032Z,11.40
2023-03-12T16:47:20.056Z,11.30
2023-03-12T16:49:48.427Z,11.20
2023-03-12T16:52:18.818Z,11.10
2023-03-12T16:54:50.080Z,11.10
2023-03-12T16:57:24.726Z,10.90
2023-03-12T16:59:52.936Z,10.90
2023-03-12T17:02:21.552Z,11.00
2023-03-12T17:04:51.021Z,11.00
2023-03-12T17:07:19.158Z,10.90
2023-03-12T17:09:48.593Z,10.80
2023-03-12T17:12:22.967Z,10.70
2023-03-12T17:14:51.740Z,10.70
2023-03-12T17:17:19.714Z,10.50
2023-03-12T17:19:47.683Z,10.40
2023-03-12T17:22:15.731Z,10.20
2023-03-12T17:24:44.839Z,10.10
2023-03-12T17:27:15.494Z,10.00
2023-03-12T17:29:43.623Z,9.90
2023-03-12T17:32:11.735Z,9.80
2023-03-12T17:34:39.704Z,9.80
2023-03-12T17:37:07.801Z,9.70
2023-03-12T17:39:36.057Z,9.60
2023-03-12T17:42:04.673Z,9.50
2023-03-12T17:44:36.672Z,9.30
2023-03-12T17:47:04.766Z,9.20
2023-03-12T17:49:32.767Z,9.10
2023-03-12T17:52:02.961Z,9.00
2023-03-12T17:54:31.182Z,8.90
2023-03-12T17:56:59.104Z,8.80
2023-03-12T17:59:27.085Z,8.70
2023-03-12T18:01:56.836Z,8.60
2023-03-12T18:04:24.800Z,8.60
2023-03-12T18:06:53.978Z,8.60
2023-03-12T18:09:23.329Z,8.60
2023-03-12T18:11:51.354Z,8.50
2023-03-12T18:14:19.458Z,8.50
2023-03-12T18:16:47.434Z,8.40
2023-03-12T18:19:17.078Z,8.40
2023-03-12T18:21:45.076Z,8.30
2023-03-12T18:24:14.538Z,8.30
2023-03-12T18:26:42.785Z,8.20
2023-03-12T18:29:10.809Z,8.00
2023-03-12T18:31:39.043Z,8.00
2023-03-12T18:34:07.079Z,8.00
2023-03-12T18:36:36.768Z,8.00
2023-03-12T18:39:06.382Z,7.90
2023-03-12T18:41:34.721Z,7.90
2023-03-12T18:44:03.360Z,7.70
2023-03-12T18:46:31.384Z,7.70
2023-03-12T18:49:05.292Z,7.60
2023-03-12T18:51:33.473Z,7.50
2023-03-12T18:54:03.051Z,7.50
2023-03-12T18:56:31.264Z,7.50
2023-03-12T18:58:59.242Z,7.50
2023-03-12T19:01:27.411Z,7.50
2023-03-12T19:03:55.554Z,7.50
2023-03-12T19:06:23.521Z,7.50
2023-03-12T19:08:51.503Z,7.40
2023-03-12T19:11:20.819Z,7.40
2023-03-12T19:13:52.085Z,7.50
2023-03-12T19:16:22.570Z,7.60
2023-03-12T19:18:51.641Z,7.70
2023-03-12T19:21:19.766Z,7.60
2023-03-12T19:23:47.766Z,7.70
2023-03-12T19:26:16.089Z,7.70
2023-03-12T19:28:45.473Z,7.80
2023-03-12T19:31:15.366Z,7.70
2023-03-12T19:33:44.802Z,7.70
2023-03-12T19:36:15.830Z,7.70
2023-03-12T19:38:44.053Z,7.70
2023-03-12T19:41:12.498Z,7.60
2023-03-12T19:43:41.275Z,7.60
2023-03-12T19:46:10.632Z,7.50
2023-03-12T19:48:38.699Z,7.50
2023-03-12T19:51:07.475Z,7.50
2023-03-12T19:53:35.428Z,7.40
2023-03-12T19:56:03.386Z,7.30
2023-03-12T19:58:31.391Z,7.30
2023-03-12T20:01:00.436Z,7.30
2023-03-12T20:03:32.966Z,7.20
2023-03-12T20:06:01.284Z,7.10
2023-03-12T20:08:31.868Z,7.00
2023-03-12T20:11:04.206Z,6.90
2023-03-12T20:13:32.244Z,6.80
2023-03-12T20:16:00.792Z,6.80
2023-03-12T20:18:30.198Z,6.80
2023-03-12T20:20:58.172Z,6.80
2023-03-12T20:23:26.189Z,6.90
2023-03-12T20:25:54.474Z,7.00
2023-03-12T20:28:22.489Z,7.00
2023-03-12T20:30:55.589Z,7.10
2023-03-12T20:33:25.600Z,7.10
2023-03-12T20:36:26.587Z,7.20
2023-03-12T20:38:55.982Z,7.20
2023-03-12T20:41:24.717Z,7.10
2023-03-12T20:43:56.496Z,7.00
2023-03-12T20:46:25.144Z,7.20
2023-03-12T20:48:54.984Z,7.30
2023-03-12T20:51:24.730Z,7.30
2023-03-12T20:53:52.824Z,7.50
2023-03-12T20:56:22.170Z,7.60
2023-03-12T20:58:50.191Z,7.60
2023-03-12T21:01:18.335Z,7.60
2023-03-12T21:03:46.349Z,7.60
2023-03-12T21:06:14.341Z,7.60
2023-03-12T21:08:42.303Z,7.60
2023-03-12T21:11:11.053Z,7.60
2023-03-12T21:13:40.425Z,7.60
2023-03-12T21:16:10.983Z,7.50
2023-03-12T21:18:38.949Z,7.60
2023-03-12T21:21:08.705Z,7.60
2023-03-12T21:23:37.135Z,7.50
2023-03-12T21:26:09.182Z,7.40
2023-03-12T21:28:37.705Z,7.20
2023-03-12T21:31:10.144Z,7.00
2023-03-12T21:33:38.644Z,6.90
2023-03-12T21:36:08.393Z,6.80
2023-03-12T21:38:36.406Z,6.80
2023-03-12T21:41:07.077Z,6.90
2023-03-12T21:43:37.434Z,6.90
2023-03-12T21:46:08.419Z,6.80
2023-03-12T21:48:38.015Z,6.80
2023-03-12T21:51:07.614Z,6.80
2023-03-12T21:53:36.040Z,6.80
2023-03-12T21:56:05.235Z,6.90
2023-03-12T21:58:34.396Z,7.00
2023-03-12T22:01:09.316Z,7.00
2023-03-12T22:03:38.321Z,6.90
2023-03-12T22:06:07.209Z,6.90
2023-03-12T22:08:35.938Z,6.90
2023-03-12T22:11:04.500Z,6.80
2023-03-12T22:13:33.005Z,6.80
2023-03-12T22:16:03.279Z,6.80
2023-03-12T22:18:33.069Z,6.90
2023-03-12T22:21:03.249Z,6.90
2023-03-12T22:23:31.929Z,7.00
2023-03-12T22:26:01.929Z,7.10
2023-03-12T22:28:31.126Z,7.30
2023-03-12T22:31:00.003Z,7.40
2023-03-12T22:33:28.165Z,7.40
2023-03-12T22:35:58.210Z,7.50
2023-03-12T22:38:26.708Z,7.40
2023-03-12T22:40:55.922Z,7.40
2023-03-12T22:43:25.931Z,7.30
2023-03-12T22:45:54.374Z,7.30
2023-03-12T22:48:22.392Z,7.30
2023-03-12T22:50:54.583Z,7.30
2023-03-12T22:53:24.136Z,7.40
2023-03-12T22:55:58.254Z,7.40
2023-03-12T22:58:26.263Z,7.40
2023-03-12T23:01:00.558Z,7.60
2023-03-12T23:03:40.558Z,7.60
2023-03-12T23:06:11.683Z,7.60
2023-03-12T23:08:41.226Z,7.60
2023-03-12T23:11:10.685Z,7.50
2023-03-12T23:13:41.311Z,7.40
2023-03-12T23:16:11.866Z,7.40
2023-03-12T23:18:40.064Z,7.40
2023-03-12T23:21:11.273Z,7.50
2023-03-12T23:23:42.124Z,7.40
2023-03-12T23:26:13.872Z,7.70
2023-03-12T23:28:41.921Z,8.00
2023-03-12T23:31:11.366Z,8.10
2023-03-12T23:33:39.805Z,8.00
2023-03-12T23:36:10.666Z,8.00
2023-03-12T23:38:40.336Z,8.10
2023-03-12T23:41:09.942Z,8.10
2023-03-12T23:43:37.999Z,8.00
2023-03-12T23:46:08.206Z,7.90
2023-03-12T23:48:38.347Z,8.00
2023-03-12T23:51:09.231Z,7.90
2023-03-12T23:53:38.348Z,8.00
2023-03-12T23:56:09.868Z,7.90
2023-03-12T23:58:38.003Z,8.00
